createdAt,value
2022-08-22T00:03:08.633Z,90.83
2022-08-22T00:03:29.236Z,95.44
2022-08-22T00:09:17.180Z,95.33
2022-08-22T00:14:37.760Z,94.82
2022-08-22T00:20:08.200Z,95.34
2022-08-22T00:25:24.722Z,95.61
2022-08-22T00:30:35.212Z,95.60
2022-08-22T00:35:52.280Z,94.93
2022-08-22T00:41:46.076Z,95.03
2022-08-22T00:47:03.977Z,94.44
2022-08-22T00:52:13.979Z,94.49
2022-08-22T00:57:34.139Z,94.51
2022-08-22T01:03:07.660Z,93.78
2022-08-22T01:08:41.879Z,93.93
2022-08-22T01:14:01.207Z,93.79
2022-08-22T01:19:24.844Z,93.41
2022-08-22T01:24:29.509Z,93.76
2022-08-22T01:29:53.947Z,93.74
2022-08-22T01:35:03.847Z,93.63
2022-08-22T01:40:27.196Z,94.21
2022-08-22T01:45:35.203Z,94.42
2022-08-22T01:50:44.131Z,94.91
2022-08-22T01:55:58.722Z,94.97
2022-08-22T02:01:20.933Z,95.36
2022-08-22T02:07:02.071Z,95.11
2022-08-22T02:12:35.773Z,95.25
2022-08-22T02:18:01.209Z,95.14
2022-08-22T02:23:41.605Z,95.63
2022-08-22T02:28:57.862Z,95.64
2022-08-22T02:34:02.592Z,96.69
2022-08-22T02:39:15.956Z,97.45
2022-08-22T02:44:24.462Z,97.15
2022-08-22T02:49:27.449Z,97.88
2022-08-22T02:54:40.532Z,98.48
2022-08-22T03:00:31.229Z,98.97
2022-08-22T03:05:39.981Z,98.09
2022-08-22T03:10:47.957Z,98.15
2022-08-22T03:15:59.991Z,98.62
2022-08-22T03:21:21.555Z,99.08
2022-08-22T03:26:41.319Z,98.64
2022-08-22T03:32:10.488Z,99.17
2022-08-22T03:37:15.275Z,100.00
2022-08-22T03:42:55.904Z,99.99
2022-08-22T03:48:00.521Z,99.54
2022-08-22T03:53:24.476Z,99.86
2022-08-22T03:59:09.857Z,100.00
2022-08-22T04:04:35.464Z,99.24
2022-08-22T04:10:22.522Z,99.95
2022-08-22T04:16:11.900Z,99.22
2022-08-22T04:21:24.023Z,99.06
2022-08-22T04:26:54.467Z,99.02
2022-08-22T04:32:26.780Z,100.00
2022-08-22T04:37:28.451Z,100.00
2022-08-22T04:42:35.397Z,100.00
2022-08-22T04:47:40.733Z,100.00
2022-08-22T04:53:04.885Z,100.00
2022-08-22T04:59:03.052Z,100.00
2022-08-22T05:04:19.240Z,100.00
2022-08-22T05:09:29.023Z,100.00
2022-08-22T05:14:40.040Z,100.00
2022-08-22T05:19:46.140Z,100.00
2022-08-22T05:24:55.876Z,100.00
2022-08-22T05:30:11.805Z,100.00
2022-08-22T05:35:14.586Z,100.00
2022-08-22T05:40:29.846Z,100.00
2022-08-22T05:45:34.216Z,100.00
2022-08-22T05:50:40.827Z,100.00
2022-08-22T05:55:45.679Z,100.00
2022-08-22T06:00:53.892Z,100.00
2022-08-22T06:06:11.583Z,100.00
2022-08-22T06:11:30.093Z,100.00
2022-08-22T06:16:48.765Z,100.00
2022-08-22T06:21:54.400Z,100.00
2022-08-22T06:27:09.497Z,100.00
2022-08-22T06:32:59.500Z,100.00
2022-08-22T06:38:00.617Z,100.00
2022-08-22T06:43:06.421Z,98.28
2022-08-22T06:48:08.516Z,98.12
2022-08-22T06:53:19.209Z,96.74
2022-08-22T06:58:25.992Z,95.11
2022-08-22T07:03:35.299Z,95.21
2022-08-22T07:08:39.185Z,94.87
2022-08-22T07:13:59.102Z,94.35
2022-08-22T07:19:03.296Z,94.71
2022-08-22T07:24:09.780Z,93.86
2022-08-22T07:29:25.800Z,92.90
2022-08-22T07:34:53.502Z,93.78
2022-08-22T07:40:19.100Z,92.26
2022-08-22T07:45:39.354Z,91.47
2022-08-22T07:51:01.337Z,91.57
2022-08-22T07:56:10.803Z,90.87
2022-08-22T08:01:21.240Z,90.70
2022-08-22T08:06:24.466Z,88.95
2022-08-22T08:11:32.954Z,89.17
2022-08-22T08:17:05.978Z,87.81
2022-08-22T08:22:10.413Z,88.09
2022-08-22T08:27:34.308Z,86.31
2022-08-22T08:32:37.646Z,85.34
2022-08-22T08:38:11.578Z,84.47
2022-08-22T08:43:39.037Z,82.64
2022-08-22T08:49:06.862Z,81.42
2022-08-22T08:54:17.838Z,81.08
2022-08-22T08:59:56.773Z,80.60
2022-08-22T09:05:24.566Z,80.10
2022-08-22T09:10:53.333Z,79.09
2022-08-22T09:16:08.155Z,78.69
2022-08-22T09:21:31.492Z,78.28
2022-08-22T09:26:57.249Z,77.57
2022-08-22T09:32:13.057Z,76.15
2022-08-22T09:37:24.170Z,75.99
2022-08-22T09:42:47.046Z,75.36
2022-08-22T09:48:07.145Z,76.41
2022-08-22T09:53:27.129Z,76.34
2022-08-22T09:58:47.650Z,76.40
2022-08-22T10:04:19.590Z,74.63
2022-08-22T10:09:26.920Z,74.07
2022-08-22T10:14:50.646Z,74.41
2022-08-22T10:20:02.304Z,74.61
2022-08-22T10:25:13.161Z,74.76
2022-08-22T10:30:24.800Z,71.91
2022-08-22T10:35:51.032Z,72.36
2022-08-22T10:41:14.448Z,71.63
2022-08-22T10:46:28.608Z,70.97
2022-08-22T10:51:47.689Z,71.46
2022-08-22T10:57:11.099Z,71.92
2022-08-22T11:02:33.269Z,71.54
2022-08-22T11:07:44.588Z,71.18
2022-08-22T11:13:29.082Z,71.02
2022-08-22T11:19:02.869Z,70.64
2022-08-22T11:24:35.297Z,70.64
2022-08-22T11:30:18.152Z,70.59
2022-08-22T11:35:26.235Z,70.64
2022-08-22T11:40:38.752Z,71.57
2022-08-22T11:45:48.178Z,71.09
2022-08-22T11:50:55.745Z,70.85
2022-08-22T11:56:12.522Z,71.03
2022-08-22T12:01:18.647Z,71.06
2022-08-22T12:06:46.731Z,70.93
2022-08-22T12:11:57.701Z,71.92
2022-08-22T12:17:50.717Z,69.66
2022-08-22T12:23:40.053Z,71.76
2022-08-22T12:29:27.472Z,71.14
2022-08-22T12:34:57.442Z,71.37
2022-08-22T12:40:13.645Z,71.17
2022-08-22T12:45:55.976Z,68.74
2022-08-22T12:51:18.169Z,69.05
2022-08-22T12:56:35.960Z,67.93
2022-08-22T13:01:49.628Z,67.83
2022-08-22T13:07:24.737Z,68.53
2022-08-22T13:12:32.738Z,67.29
2022-08-22T13:17:37.117Z,66.46
2022-08-22T13:22:45.377Z,66.77
2022-08-22T13:27:56.209Z,67.52
2022-08-22T13:33:11.088Z,65.83
2022-08-22T13:38:17.425Z,66.31
2022-08-22T13:43:30.364Z,63.83
2022-08-22T13:48:49.668Z,64.20
2022-08-22T13:54:24.889Z,63.68
2022-08-22T13:59:51.796Z,63.11
2022-08-22T14:05:00.522Z,63.83
2022-08-22T14:10:21.666Z,64.89
2022-08-22T14:15:44.811Z,65.48
2022-08-22T14:20:49.712Z,65.33
2022-08-22T14:25:52.077Z,66.03
2022-08-22T14:31:07.278Z,66.95
2022-08-22T14:36:19.991Z,65.39
2022-08-22T14:41:55.441Z,65.25
2022-08-22T14:47:03.713Z,65.92
2022-08-22T14:52:09.668Z,66.92
2022-08-22T14:57:20.231Z,68.05
2022-08-22T15:02:25.592Z,67.62
2022-08-22T15:07:36.274Z,65.34
2022-08-22T15:12:48.382Z,64.44
2022-08-22T15:17:53.843Z,63.07
2022-08-22T15:23:10.153Z,61.37
2022-08-22T15:28:20.230Z,60.69
2022-08-22T15:33:33.288Z,59.52
2022-08-22T15:38:42.135Z,61.78
2022-08-22T15:44:32.239Z,62.39
2022-08-22T15:49:50.819Z,59.46
2022-08-22T15:54:57.029Z,58.14
2022-08-22T16:00:04.788Z,60.71
2022-08-22T16:05:14.245Z,62.46
2022-08-22T16:10:24.331Z,63.04
2022-08-22T16:15:56.361Z,64.60
2022-08-22T16:21:02.173Z,64.89
2022-08-22T16:26:08.629Z,66.34
2022-08-22T16:31:28.963Z,64.55
2022-08-22T16:36:54.669Z,62.92
2022-08-22T16:42:16.345Z,63.50
2022-08-22T16:47:32.621Z,64.96
2022-08-22T16:52:54.677Z,65.15
2022-08-22T16:58:21.885Z,66.17
2022-08-22T17:03:32.543Z,66.48
2022-08-22T17:08:57.718Z,66.91
2022-08-22T17:14:12.503Z,67.95
2022-08-22T17:19:34.806Z,68.89
2022-08-22T17:24:51.682Z,69.37
2022-08-22T17:29:55.623Z,69.99
2022-08-22T17:35:16.017Z,70.20
2022-08-22T17:40:52.462Z,71.01
2022-08-22T17:46:16.118Z,72.32
2022-08-22T17:51:39.283Z,72.21
2022-08-22T17:57:22.408Z,73.00
2022-08-22T18:02:39.412Z,74.60
2022-08-22T18:07:58.635Z,75.78
2022-08-22T18:13:16.844Z,75.58
2022-08-22T18:18:31.161Z,76.00
2022-08-22T18:23:43.454Z,75.83
2022-08-22T18:29:13.612Z,75.05
2022-08-22T18:34:42.881Z,75.38
2022-08-22T18:40:01.338Z,75.70
2022-08-22T18:45:06.126Z,76.32
2022-08-22T18:50:31.003Z,75.96
2022-08-22T18:55:46.024Z,75.90
2022-08-22T19:01:01.830Z,75.45
2022-08-22T19:06:19.572Z,75.52
2022-08-22T19:11:38.100Z,76.02
2022-08-22T19:17:01.574Z,75.76
2022-08-22T19:22:24.603Z,75.42
2022-08-22T19:27:31.524Z,75.58
2022-08-22T19:32:46.319Z,75.20
2022-08-22T19:38:07.965Z,75.61
2022-08-22T19:43:25.063Z,76.27
2022-08-22T19:48:33.987Z,76.01
2022-08-22T19:53:49.708Z,77.06
2022-08-22T19:58:54.291Z,77.33
2022-08-22T20:04:29.018Z,77.56
2022-08-22T20:09:53.080Z,78.51
2022-08-22T20:14:55.551Z,79.38
2022-08-22T20:20:18.547Z,79.79
2022-08-22T20:25:41.871Z,79.56
2022-08-22T20:30:49.249Z,79.72
2022-08-22T20:35:55.701Z,79.48
2022-08-22T20:41:20.900Z,80.21
2022-08-22T20:46:46.149Z,81.32
2022-08-22T20:51:56.786Z,80.80
2022-08-22T20:57:19.321Z,81.67
2022-08-22T21:02:25.083Z,82.61
2022-08-22T21:07:30.558Z,83.13
2022-08-22T21:12:34.573Z,82.98
2022-08-22T21:17:39.296Z,83.77
2022-08-22T21:22:46.313Z,83.99
2022-08-22T21:27:48.503Z,84.20
2022-08-22T21:32:55.514Z,84.83
2022-08-22T21:38:00.465Z,84.90
2022-08-22T21:43:11.014Z,85.54
2022-08-22T21:48:46.263Z,86.05
2022-08-22T21:54:17.785Z,85.91
2022-08-22T21:59:50.595Z,85.15
2022-08-22T22:04:59.593Z,86.41
2022-08-22T22:10:01.309Z,85.77
2022-08-22T22:15:06.128Z,86.21
2022-08-22T22:20:13.774Z,86.41
2022-08-22T22:25:40.890Z,85.69
2022-08-22T22:30:50.521Z,86.04
2022-08-22T22:35:53.344Z,86.73
2022-08-22T22:40:57.367Z,86.21
2022-08-22T22:46:03.893Z,86.78
2022-08-22T22:51:12.513Z,86.79
2022-08-22T22:56:21.723Z,86.51
2022-08-22T23:01:25.929Z,86.42
2022-08-22T23:06:32.488Z,85.76
2022-08-22T23:11:38.729Z,85.13
2022-08-22T23:16:47.244Z,84.95
2022-08-22T23:21:51.331Z,84.54
2022-08-22T23:26:53.133Z,84.53
2022-08-22T23:31:58.403Z,84.58
2022-08-22T23:37:02.305Z,84.09
2022-08-22T23:42:11.745Z,84.54
2022-08-22T23:47:14.412Z,84.78
2022-08-22T23:52:18.708Z,85.40
2022-08-22T23:57:26.333Z,85.22
